createdAt,value
2019-05-01T00:00:21.219Z,19.43
2019-05-01T00:02:50.605Z,16.90
2019-05-01T00:05:24.587Z,17.67
2019-05-01T00:07:54.090Z,18.60
2019-05-01T00:10:23.745Z,16.10
2019-05-01T00:12:53.224Z,16.77
2019-05-01T00:15:24.413Z,15.93
2019-05-01T00:17:53.943Z,16.40
2019-05-01T00:20:23.577Z,17.17
2019-05-01T00:22:53.062Z,14.87
2019-05-01T00:25:22.539Z,15.20
2019-05-01T00:27:52.062Z,13.03
2019-05-01T00:30:29.637Z,14.70
2019-05-01T00:32:53.981Z,15.83
2019-05-01T00:35:23.540Z,15.73
2019-05-01T00:37:53.009Z,14.97
2019-05-01T00:40:22.587Z,15.60
2019-05-01T00:42:52.043Z,14.40
2019-05-01T00:45:21.514Z,15.90
2019-05-01T00:47:51.021Z,17.30
2019-05-01T00:50:20.547Z,16.23
2019-05-01T00:52:50.116Z,16.13
2019-05-01T00:55:37.062Z,17.57
2019-05-01T00:58:24.672Z,16.13
2019-05-01T01:01:11.870Z,16.00
2019-05-01T01:03:41.934Z,16.40
2019-05-01T01:06:11.606Z,15.57
2019-05-01T01:08:41.155Z,15.97
2019-05-01T01:11:10.620Z,16.13
2019-05-01T01:13:40.123Z,15.93
2019-05-01T01:16:09.685Z,15.20
2019-05-01T01:18:39.173Z,14.77
2019-05-01T01:21:08.804Z,14.53
2019-05-01T01:23:38.830Z,13.47
2019-05-01T01:26:08.406Z,16.53
2019-05-01T01:28:37.959Z,18.43
2019-05-01T01:31:07.524Z,16.33
2019-05-01T01:33:37.062Z,15.60
2019-05-01T01:36:06.647Z,14.33
2019-05-01T01:38:36.735Z,14.33
2019-05-01T01:41:06.451Z,14.93
2019-05-01T01:43:40.658Z,16.77
2019-05-01T01:46:20.757Z,15.13
2019-05-01T01:48:50.374Z,14.30
2019-05-01T01:51:20.704Z,15.30
2019-05-01T01:53:51.180Z,14.80
2019-05-01T01:56:21.312Z,15.67
2019-05-01T01:58:51.118Z,17.40
2019-05-01T02:01:25.179Z,15.30
2019-05-01T02:03:59.405Z,16.37
2019-05-01T02:06:29.003Z,14.17
2019-05-01T02:08:58.700Z,15.47
2019-05-01T02:11:28.160Z,17.47
2019-05-01T02:13:58.111Z,13.80
2019-05-01T02:16:27.804Z,15.90
2019-05-01T02:18:57.534Z,15.47
2019-05-01T02:21:26.992Z,17.17
2019-05-01T02:23:56.670Z,17.07
2019-05-01T02:26:28.244Z,16.47
2019-05-01T02:29:12.842Z,15.37
2019-05-01T02:31:47.260Z,15.53
2019-05-01T02:34:18.482Z,16.47
2019-05-01T02:36:50.674Z,18.03
2019-05-01T02:39:21.697Z,17.20
2019-05-01T02:41:53.666Z,14.77
2019-05-01T02:44:30.788Z,15.63
2019-05-01T02:47:04.961Z,15.80
2019-05-01T02:49:43.132Z,14.83
2019-05-01T02:52:13.997Z,14.83
2019-05-01T02:54:46.386Z,14.90
2019-05-01T02:57:19.002Z,14.97
2019-05-01T02:59:52.255Z,17.83
2019-05-01T03:02:25.062Z,17.43
2019-05-01T03:04:55.740Z,16.90
2019-05-01T03:07:28.702Z,13.80
2019-05-01T03:09:58.163Z,15.80
2019-05-01T03:12:30.951Z,16.37
2019-05-01T03:15:04.198Z,14.00
2019-05-01T03:17:54.139Z,15.43
2019-05-01T03:20:35.842Z,15.43
2019-05-01T03:23:16.382Z,15.73
2019-05-01T03:25:46.019Z,15.17
2019-05-01T03:28:16.014Z,14.37
2019-05-01T03:30:45.627Z,17.73
2019-05-01T03:33:15.190Z,15.53
2019-05-01T03:35:45.087Z,16.90
2019-05-01T03:38:14.839Z,16.00
2019-05-01T03:40:44.680Z,15.83
2019-05-01T03:43:14.321Z,17.90
2019-05-01T03:45:44.545Z,15.70
2019-05-01T03:48:14.344Z,17.60
2019-05-01T03:50:46.729Z,17.70
2019-05-01T03:53:15.361Z,16.73
2019-05-01T03:55:44.918Z,17.30
2019-05-01T03:58:14.559Z,15.07
2019-05-01T04:03:44.830Z,19.90
2019-05-01T04:06:14.839Z,17.90
2019-05-01T04:08:44.868Z,15.70
2019-05-01T04:11:14.606Z,15.30
2019-05-01T04:13:44.463Z,17.37
2019-05-01T04:16:14.864Z,16.37
2019-05-01T04:18:44.532Z,13.60
2019-05-01T04:21:14.099Z,16.60
2019-05-01T04:23:43.765Z,18.13
2019-05-01T04:26:13.594Z,15.67
2019-05-01T04:28:43.099Z,18.17
2019-05-01T04:31:12.425Z,19.23
2019-05-01T04:33:43.831Z,19.93
2019-05-01T04:36:18.063Z,18.87
2019-05-01T04:38:47.801Z,21.07
2019-05-01T04:41:17.340Z,22.13
2019-05-01T04:43:46.958Z,23.90
2019-05-01T04:46:16.730Z,23.77
2019-05-01T04:48:46.306Z,23.07
2019-05-01T04:51:16.001Z,20.67
2019-05-01T04:53:45.917Z,21.03
2019-05-01T04:56:15.526Z,20.37
2019-05-01T04:58:45.149Z,22.07
2019-05-01T05:01:15.041Z,21.03
2019-05-01T05:03:46.688Z,22.07
2019-05-01T05:06:16.297Z,24.10
2019-05-01T05:08:46.017Z,28.97
2019-05-01T05:11:17.764Z,24.30
2019-05-01T05:14:05.173Z,31.83
2019-05-01T05:16:45.143Z,28.50
2019-05-01T05:19:15.172Z,40.00
2019-05-01T05:21:44.706Z,32.43
2019-05-01T05:24:14.691Z,35.30
2019-05-01T05:26:44.397Z,24.47
2019-05-01T05:29:16.101Z,21.33
2019-05-01T05:31:46.719Z,22.93
2019-05-01T05:34:20.446Z,21.37
2019-05-01T05:36:53.485Z,18.93
2019-05-01T05:39:26.821Z,21.87
2019-05-01T05:41:57.419Z,23.43
2019-05-01T05:44:27.223Z,21.33
2019-05-01T05:46:56.780Z,23.03
2019-05-01T05:49:26.617Z,20.13
2019-05-01T05:52:01.118Z,23.00
2019-05-01T05:54:52.545Z,17.87
2019-05-01T05:57:30.015Z,37.70
2019-05-01T06:00:11.541Z,29.87
2019-05-01T06:02:48.032Z,34.80
2019-05-01T06:05:41.619Z,46.70
2019-05-01T06:08:13.165Z,26.20
2019-05-01T06:10:53.640Z,45.80
2019-05-01T06:13:42.868Z,32.40
2019-05-01T06:16:16.276Z,23.43
2019-05-01T06:18:50.361Z,19.80
2019-05-01T06:21:28.106Z,26.33
2019-05-01T06:24:06.313Z,30.10
2019-05-01T06:26:37.441Z,23.97
2019-05-01T06:29:06.533Z,25.30
2019-05-01T06:31:36.865Z,23.97
2019-05-01T06:34:06.498Z,24.03
2019-05-01T06:36:36.105Z,27.53
2019-05-01T06:39:11.733Z,28.07
2019-05-01T06:41:42.826Z,25.53
2019-05-01T06:44:15.423Z,26.87
2019-05-01T06:46:49.488Z,25.90
2019-05-01T06:49:29.442Z,27.00
2019-05-01T06:51:58.285Z,31.53
2019-05-01T06:54:30.423Z,33.03
2019-05-01T06:57:02.112Z,31.43
2019-05-01T06:59:33.361Z,39.87
2019-05-01T07:02:03.607Z,34.63
2019-05-01T07:04:38.103Z,33.23
2019-05-01T07:07:08.230Z,36.20
2019-05-01T07:09:37.971Z,37.67
2019-05-01T07:12:09.572Z,34.50
2019-05-01T07:14:39.262Z,30.20
2019-05-01T07:17:13.462Z,36.67
2019-05-01T07:19:50.920Z,38.87
2019-05-01T07:22:21.584Z,27.23
2019-05-01T07:24:51.535Z,35.03
2019-05-01T07:27:23.742Z,36.93
2019-05-01T07:29:54.351Z,33.13
2019-05-01T07:32:24.032Z,41.97
2019-05-01T07:34:56.938Z,35.37
2019-05-01T07:37:25.875Z,34.87
2019-05-01T07:39:56.612Z,38.50
2019-05-01T07:42:27.921Z,43.47
2019-05-01T07:45:03.951Z,41.70
2019-05-01T07:47:38.103Z,38.93
2019-05-01T07:50:14.109Z,34.77
2019-05-01T07:52:47.795Z,40.93
2019-05-01T07:55:18.179Z,29.23
2019-05-01T07:57:47.144Z,37.30
2019-05-01T08:00:18.418Z,41.90
2019-05-01T08:02:48.182Z,43.03
2019-05-01T08:05:17.742Z,38.03
2019-05-01T08:07:47.259Z,33.00
2019-05-01T08:10:21.092Z,34.27
2019-05-01T08:12:48.186Z,33.73
2019-05-01T08:15:17.828Z,39.20
2019-05-01T08:17:48.754Z,32.30
2019-05-01T08:20:20.560Z,31.37
2019-05-01T08:22:50.048Z,33.87
2019-05-01T08:25:19.562Z,37.70
2019-05-01T08:27:56.341Z,31.60
2019-05-01T08:30:26.026Z,28.80
2019-05-01T08:32:59.820Z,33.13
2019-05-01T08:35:31.852Z,32.87
2019-05-01T08:38:01.273Z,29.27
2019-05-01T08:40:30.829Z,31.13
2019-05-01T08:43:00.327Z,33.63
2019-05-01T08:45:29.692Z,30.97
2019-05-01T08:48:01.511Z,25.73
2019-05-01T08:50:31.035Z,32.57
2019-05-01T08:53:00.635Z,37.53
2019-05-01T08:55:30.233Z,36.20
2019-05-01T08:57:59.731Z,32.90
2019-05-01T09:00:30.919Z,32.00
2019-05-01T09:03:08.111Z,32.20
2019-05-01T09:05:33.918Z,39.60
2019-05-01T09:08:03.063Z,37.90
2019-05-01T09:10:32.619Z,38.50
2019-05-01T09:13:02.117Z,36.07
2019-05-01T09:15:31.729Z,40.63
2019-05-01T09:18:01.433Z,40.57
2019-05-01T09:20:32.204Z,40.80
2019-05-01T09:23:01.723Z,34.00
2019-05-01T09:25:38.621Z,33.53
2019-05-01T09:28:12.531Z,29.80
2019-05-01T09:30:43.820Z,32.77
2019-05-01T09:33:13.331Z,31.07
2019-05-01T09:35:45.400Z,36.20
2019-05-01T09:38:14.172Z,34.03
2019-05-01T09:40:43.709Z,35.53
2019-05-01T09:43:13.369Z,38.50
2019-05-01T09:45:42.900Z,30.63
2019-05-01T09:48:12.550Z,32.27
2019-05-01T09:50:43.786Z,35.50
2019-05-01T09:53:17.315Z,30.97
2019-05-01T09:55:57.429Z,33.60
2019-05-01T09:58:27.007Z,31.83
2019-05-01T10:00:58.231Z,28.57
2019-05-01T10:03:27.850Z,34.00
2019-05-01T10:05:57.370Z,33.33
2019-05-01T10:08:26.850Z,33.13
2019-05-01T10:10:59.837Z,38.63
2019-05-01T10:13:27.567Z,35.00
2019-05-01T10:15:57.050Z,35.80
2019-05-01T10:18:26.564Z,36.73
2019-05-01T10:20:56.037Z,46.67
2019-05-01T10:23:25.547Z,38.73
2019-05-01T10:25:56.681Z,41.67
2019-05-01T10:28:40.511Z,37.57
2019-05-01T10:31:23.640Z,45.63
2019-05-01T10:33:54.826Z,42.33
2019-05-01T10:36:31.657Z,42.30
2019-05-01T10:39:01.272Z,40.27
2019-05-01T10:41:30.803Z,36.37
2019-05-01T10:44:00.295Z,40.40
2019-05-01T10:46:29.803Z,41.67
2019-05-01T10:48:59.375Z,38.17
2019-05-01T10:51:28.896Z,38.20
2019-05-01T10:53:58.409Z,45.43
2019-05-01T10:56:27.904Z,47.83
2019-05-01T10:58:57.481Z,42.57
2019-05-01T11:01:28.587Z,46.03
2019-05-01T11:03:58.186Z,42.57
2019-05-01T11:06:27.715Z,44.13
2019-05-01T11:08:57.227Z,47.00
2019-05-01T11:11:26.714Z,38.00
2019-05-01T11:13:56.256Z,38.57
2019-05-01T11:16:25.869Z,41.93
2019-05-01T11:19:14.783Z,39.00
2019-05-01T11:21:44.331Z,37.93
2019-05-01T11:24:13.909Z,36.77
2019-05-01T11:26:43.387Z,39.67
2019-05-01T11:29:12.991Z,41.20
2019-05-01T11:31:50.352Z,43.80
2019-05-01T11:34:37.887Z,45.20
2019-05-01T11:37:07.217Z,40.80
2019-05-01T11:39:45.303Z,47.50
2019-05-01T11:42:18.748Z,48.73
2019-05-01T11:44:48.326Z,51.77
2019-05-01T11:47:17.877Z,46.10
2019-05-01T11:49:47.388Z,41.77
2019-05-01T11:52:17.021Z,42.43
2019-05-01T11:54:46.535Z,45.27
2019-05-01T11:57:16.050Z,39.77
2019-05-01T11:59:45.522Z,40.23
2019-05-01T12:02:15.179Z,40.63
2019-05-01T12:04:44.673Z,44.13
2019-05-01T12:07:14.173Z,42.20
2019-05-01T12:09:43.673Z,49.33
2019-05-01T12:12:14.895Z,42.77
2019-05-01T12:14:44.481Z,44.10
2019-05-01T12:17:21.344Z,45.63
2019-05-01T12:19:50.838Z,53.07
2019-05-01T12:22:20.329Z,49.93
2019-05-01T12:24:49.834Z,45.13
2019-05-01T12:27:19.395Z,48.10
2019-05-01T12:29:48.894Z,50.70
2019-05-01T12:32:18.377Z,45.20
2019-05-01T12:34:47.922Z,46.77
2019-05-01T12:37:24.516Z,44.87
2019-05-01T12:39:54.095Z,41.77
2019-05-01T12:42:25.236Z,47.17
2019-05-01T12:44:54.714Z,44.07
2019-05-01T12:47:42.105Z,53.27
2019-05-01T12:50:12.602Z,46.43
2019-05-01T12:52:44.386Z,48.90
2019-05-01T12:58:10.640Z,47.40
2019-05-01T13:00:50.927Z,52.87
2019-05-01T13:03:20.526Z,53.87
2019-05-01T13:05:50.134Z,52.77
2019-05-01T13:08:19.812Z,53.00
2019-05-01T13:10:50.920Z,60.20
2019-05-01T13:13:20.460Z,57.33
2019-05-01T13:16:09.459Z,58.33
2019-05-01T13:18:38.929Z,66.50
2019-05-01T13:21:27.871Z,59.37
2019-05-01T13:23:57.381Z,58.90
2019-05-01T13:26:40.767Z,63.77
2019-05-01T13:29:17.782Z,62.47
2019-05-01T13:31:51.693Z,53.03
2019-05-01T13:34:21.173Z,55.93
2019-05-01T13:37:02.320Z,58.07
2019-05-01T13:39:22.030Z,57.23
2019-05-01T13:41:51.583Z,59.33
2019-05-01T13:44:21.193Z,63.67
2019-05-01T13:46:50.646Z,64.17
2019-05-01T13:49:20.170Z,64.20
2019-05-01T13:51:49.704Z,57.00
2019-05-01T13:54:19.323Z,60.23
2019-05-01T13:56:49.035Z,60.63
2019-05-01T13:59:18.633Z,65.17
2019-05-01T14:01:48.135Z,67.47
2019-05-01T14:04:21.519Z,62.03
2019-05-01T14:06:50.246Z,69.33
2019-05-01T14:09:21.542Z,64.70
2019-05-01T14:11:51.135Z,65.03
2019-05-01T14:14:20.642Z,61.80
2019-05-01T14:16:50.219Z,61.47
2019-05-01T14:19:19.746Z,56.50
2019-05-01T14:22:02.680Z,58.93
2019-05-01T14:24:33.878Z,58.87
2019-05-01T14:27:03.421Z,57.73
2019-05-01T14:29:32.956Z,63.30
2019-05-01T14:32:02.429Z,67.83
2019-05-01T14:34:31.944Z,59.90
2019-05-01T14:37:01.521Z,58.67
2019-05-01T14:39:31.045Z,57.63
2019-05-01T14:42:00.554Z,57.63
2019-05-01T14:44:36.531Z,56.07
2019-05-01T14:47:01.283Z,53.33
2019-05-01T14:49:30.796Z,51.43
2019-05-01T14:52:00.299Z,54.67
2019-05-01T14:54:29.938Z,47.23
2019-05-01T14:56:59.446Z,52.60
2019-05-01T14:59:29.069Z,50.50
2019-05-01T15:01:58.638Z,57.93
2019-05-01T15:04:28.220Z,53.97
2019-05-01T15:06:58.379Z,53.87
2019-05-01T15:09:28.033Z,54.30
2019-05-01T15:11:57.608Z,51.10
2019-05-01T15:14:31.196Z,49.00
2019-05-01T15:19:57.552Z,45.73
2019-05-01T15:22:27.221Z,47.87
2019-05-01T15:24:56.710Z,43.37
2019-05-01T15:27:26.291Z,45.23
2019-05-01T15:29:55.918Z,42.70
2019-05-01T15:32:25.564Z,45.23
2019-05-01T15:34:55.036Z,41.30
2019-05-01T15:37:24.608Z,42.87
2019-05-01T15:39:55.943Z,37.40
2019-05-01T15:42:32.726Z,37.50
2019-05-01T15:45:02.393Z,38.57
2019-05-01T15:47:31.915Z,33.50
2019-05-01T15:50:01.454Z,42.87
2019-05-01T15:52:30.963Z,38.37
2019-05-01T15:55:00.475Z,38.87
2019-05-01T15:57:30.014Z,36.17
2019-05-01T15:59:59.714Z,38.83
2019-05-01T16:02:29.337Z,34.77
2019-05-01T16:05:18.370Z,36.77
2019-05-01T16:07:48.398Z,38.60
2019-05-01T16:10:19.705Z,36.50
2019-05-01T16:12:56.901Z,37.70
2019-05-01T16:15:33.962Z,34.53
2019-05-01T16:18:04.668Z,35.93
2019-05-01T16:20:34.256Z,36.47
2019-05-01T16:23:03.817Z,34.93
2019-05-01T16:25:33.390Z,34.50
2019-05-01T16:28:03.025Z,32.50
2019-05-01T16:30:32.666Z,33.40
2019-05-01T16:33:02.306Z,33.50
2019-05-01T16:35:31.816Z,29.93
2019-05-01T16:38:23.314Z,27.67
2019-05-01T16:41:03.519Z,28.47
2019-05-01T16:43:33.091Z,31.27
2019-05-01T16:46:02.782Z,28.13
2019-05-01T16:48:32.293Z,29.50
2019-05-01T16:51:01.836Z,31.33
2019-05-01T16:53:31.342Z,24.90
2019-05-01T16:56:00.950Z,25.70
2019-05-01T16:58:32.038Z,24.63
2019-05-01T17:01:08.272Z,23.63
2019-05-01T17:03:55.486Z,22.20
2019-05-01T17:06:30.502Z,21.67
2019-05-01T17:09:13.719Z,22.27
2019-05-01T17:11:43.261Z,25.37
2019-05-01T17:14:13.441Z,23.60
2019-05-01T17:16:42.994Z,22.63
2019-05-01T17:19:12.709Z,20.93
2019-05-01T17:21:42.264Z,22.40
2019-05-01T17:24:11.877Z,23.30
2019-05-01T17:26:41.371Z,23.17
2019-05-01T17:29:10.958Z,21.20
2019-05-01T17:31:40.446Z,22.57
2019-05-01T17:34:10.067Z,22.00
2019-05-01T17:36:39.725Z,19.20
2019-05-01T17:39:09.647Z,20.33
2019-05-01T17:41:39.249Z,21.03
2019-05-01T17:44:08.783Z,18.43
2019-05-01T17:46:41.958Z,18.33
2019-05-01T17:49:10.611Z,23.90
2019-05-01T17:51:42.741Z,19.53
2019-05-01T17:54:12.901Z,22.37
2019-05-01T17:56:42.578Z,19.27
2019-05-01T17:59:16.115Z,17.07
2019-05-01T18:01:47.270Z,24.07
2019-05-01T18:04:21.256Z,22.43
2019-05-01T18:06:52.132Z,18.87
2019-05-01T18:09:21.912Z,16.83
2019-05-01T18:11:52.369Z,16.63
2019-05-01T18:14:22.755Z,16.83
2019-05-01T18:16:52.346Z,18.47
2019-05-01T18:19:21.901Z,17.33
2019-05-01T18:21:53.643Z,20.10
2019-05-01T18:24:39.082Z,19.03
2019-05-01T18:27:19.150Z,19.30
2019-05-01T18:29:54.591Z,19.07
2019-05-01T18:32:28.465Z,20.27
2019-05-01T18:34:58.018Z,18.90
2019-05-01T18:37:31.263Z,18.43
2019-05-01T18:40:00.503Z,20.57
2019-05-01T18:42:30.152Z,18.77
2019-05-01T18:44:59.685Z,19.83
2019-05-01T18:47:29.613Z,19.57
2019-05-01T18:49:59.174Z,22.47
2019-05-01T18:52:28.893Z,17.83
2019-05-01T18:54:58.435Z,19.47
2019-05-01T18:57:27.992Z,17.83
2019-05-01T18:59:57.489Z,18.83
2019-05-01T19:02:27.001Z,19.27
2019-05-01T19:04:56.647Z,20.37
2019-05-01T19:07:26.376Z,19.23
2019-05-01T19:09:55.891Z,21.47
2019-05-01T19:12:25.478Z,18.60
2019-05-01T19:14:54.990Z,18.53
2019-05-01T19:17:24.629Z,18.90
2019-05-01T19:19:54.190Z,24.73
2019-05-01T19:22:23.858Z,20.83
2019-05-01T19:24:53.439Z,21.17
2019-05-01T19:27:24.391Z,20.07
2019-05-01T19:29:57.674Z,16.23
2019-05-01T19:32:25.818Z,19.77
2019-05-01T19:34:55.448Z,20.07
2019-05-01T19:37:28.198Z,19.87
2019-05-01T19:39:56.244Z,19.10
2019-05-01T19:42:25.845Z,21.90
2019-05-01T19:44:56.304Z,20.97
2019-05-01T19:47:26.711Z,22.33
2019-05-01T19:49:56.352Z,20.97
2019-05-01T19:52:25.974Z,21.70
2019-05-01T19:54:55.475Z,21.30
2019-05-01T19:57:25.040Z,22.60
2019-05-01T19:59:54.575Z,26.13
2019-05-01T20:02:24.287Z,28.20
2019-05-01T20:04:53.750Z,24.03
2019-05-01T20:07:23.353Z,21.00
2019-05-01T20:09:57.185Z,26.30
2019-05-01T20:12:24.280Z,23.37
2019-05-01T20:14:54.911Z,20.00
2019-05-01T20:17:24.425Z,19.03
2019-05-01T20:19:53.974Z,23.33
2019-05-01T20:22:23.558Z,24.57
2019-05-01T20:24:53.124Z,26.80
2019-05-01T20:27:22.637Z,24.20
2019-05-01T20:29:52.286Z,28.03
2019-05-01T20:32:26.380Z,24.07
2019-05-01T20:34:54.035Z,23.00
2019-05-01T20:37:23.747Z,22.10
2019-05-01T20:39:53.252Z,21.00
2019-05-01T20:42:22.919Z,25.47
2019-05-01T20:45:03.944Z,31.17
2019-05-01T20:47:34.984Z,26.50
2019-05-01T20:49:55.057Z,28.10
2019-05-01T20:52:24.629Z,29.17
2019-05-01T20:54:54.168Z,28.20
2019-05-01T21:00:38.978Z,29.33
2019-05-01T21:03:08.503Z,24.10
2019-05-01T21:05:39.695Z,24.03
2019-05-01T21:08:14.786Z,30.00
2019-05-01T21:10:52.783Z,25.33
2019-05-01T21:13:23.249Z,25.30
2019-05-01T21:15:56.418Z,29.57
2019-05-01T21:18:25.938Z,29.70
2019-05-01T21:20:55.602Z,25.77
2019-05-01T21:23:25.307Z,28.80
2019-05-01T21:25:54.879Z,27.13
2019-05-01T21:28:24.356Z,24.77
2019-05-01T21:30:54.468Z,28.60
2019-05-01T21:33:24.263Z,30.20
2019-05-01T21:35:53.955Z,29.07
2019-05-01T21:38:23.427Z,26.33
2019-05-01T21:40:53.851Z,27.20
2019-05-01T21:43:23.598Z,27.47
2019-05-01T21:45:53.513Z,30.10
2019-05-01T21:48:23.262Z,31.50
2019-05-01T21:50:53.746Z,34.27
2019-05-01T21:53:24.030Z,27.23
2019-05-01T21:55:53.612Z,31.07
2019-05-01T21:58:28.199Z,27.97
2019-05-01T22:00:59.195Z,25.97
2019-05-01T22:03:26.460Z,30.60
2019-05-01T22:05:55.970Z,31.20
2019-05-01T22:08:26.171Z,28.23
2019-05-01T22:10:57.599Z,28.80
2019-05-01T22:13:27.220Z,26.47
2019-05-01T22:15:58.369Z,26.37
2019-05-01T22:18:29.780Z,22.87
2019-05-01T22:21:17.296Z,28.97
2019-05-01T22:24:04.829Z,29.60
2019-05-01T22:26:36.001Z,28.17
2019-05-01T22:29:07.297Z,27.47
2019-05-01T22:31:36.561Z,25.27
2019-05-01T22:34:07.987Z,27.87
2019-05-01T22:36:37.524Z,28.20
2019-05-01T22:39:07.971Z,27.10
2019-05-01T22:41:37.526Z,27.60
2019-05-01T22:44:07.150Z,28.50
2019-05-01T22:46:39.142Z,28.93
2019-05-01T22:49:07.963Z,28.90
2019-05-01T22:51:37.465Z,29.10
2019-05-01T22:54:07.001Z,34.17
2019-05-01T22:56:36.489Z,26.80
2019-05-01T22:59:06.242Z,28.20
2019-05-01T23:01:35.811Z,29.73
2019-05-01T23:04:06.254Z,30.83
2019-05-01T23:06:37.226Z,34.00
2019-05-01T23:09:09.268Z,32.70
2019-05-01T23:11:40.879Z,30.00
2019-05-01T23:14:10.937Z,30.30
2019-05-01T23:16:42.137Z,30.93
2019-05-01T23:19:11.639Z,29.10
2019-05-01T23:21:41.213Z,28.53
2019-05-01T23:24:10.668Z,29.00
2019-05-01T23:26:40.131Z,24.50
2019-05-01T23:29:09.641Z,29.53
2019-05-01T23:31:39.472Z,34.07
2019-05-01T23:34:08.934Z,30.17
2019-05-01T23:36:38.410Z,29.10
2019-05-01T23:39:08.210Z,28.70
2019-05-01T23:41:45.739Z,32.27
2019-05-01T23:44:09.014Z,30.27
2019-05-01T23:46:38.488Z,30.53
2019-05-01T23:49:08.039Z,27.67
2019-05-01T23:51:37.516Z,26.60
2019-05-01T23:54:07.079Z,26.27
2019-05-01T23:56:36.545Z,24.37
2019-05-01T23:59:06.359Z,29.37
